Time;durP1;ratioP1;P1;durP2;ratioP2;P2;SDS_P1;SDS_P2;PMS_P1;PMS_P2;Temp;Humidity;BMP_temperature;BMP_pressure;BME280_temperature;BME280_humidity;BME280_pressure;Samples;Min_cycle;Max_cycle;Signal;HPM_P1;HPM_P2
2022/03/14 00:02:04;;;;;;;4.00;2.40;;;;;;;;;;7399296;19;20014;-77
2022/03/14 00:04:29;;;;;;;6.05;2.90;;;;;;;;;;7398423;19;20011;-76
2022/03/14 00:06:55;;;;;;;4.93;2.88;;;;;;;;;;7408952;19;20048;-77
2022/03/14 00:09:24;;;;;;;4.65;2.47;;;;;;;;;;7415253;19;20010;-76
2022/03/14 00:11:57;;;;;;;3.90;2.45;;;;;;;;;;7410671;19;20010;-78
2022/03/14 00:14:25;;;;;;;4.78;2.13;;;;;;;;;;7399271;19;20096;-77
2022/03/14 00:16:52;;;;;;;4.47;2.42;;;;;;;;;;7395094;19;20010;-77
2022/03/14 00:19:18;;;;;;;4.93;2.85;;;;;;;;;;7392855;19;20078;-78
2022/03/14 00:21:45;;;;;;;4.60;2.72;;;;;;;;;;7391747;19;20356;-78
2022/03/14 00:24:11;;;;;;;4.32;2.38;;;;;;;;;;7393788;19;20014;-79
2022/03/14 00:26:37;;;;;;;4.28;2.15;;;;;;;;;;7392317;19;20010;-78
2022/03/14 00:29:03;;;;;;;4.35;2.33;;;;;;;;;;7396844;19;20042;-79
2022/03/14 00:31:29;;;;;;;4.70;2.35;;;;;;;;;;7400233;19;20006;-78
2022/03/14 00:33:54;;;;;;;4.13;2.55;;;;;;;;;;7399354;19;20039;-77
2022/03/14 00:36:20;;;;;;;5.88;2.58;;;;;;;;;;7395806;19;20007;-78
2022/03/14 00:38:45;;;;;;;4.75;2.72;;;;;;;;;;7393984;19;20035;-78
2022/03/14 00:41:12;;;;;;;3.83;2.38;;;;;;;;;;7393299;19;20338;-78
2022/03/14 00:43:38;;;;;;;3.92;1.92;;;;;;;;;;7391832;19;20007;-79
2022/03/14 00:46:04;;;;;;;2.80;1.80;;;;;;;;;;7397310;19;20009;-78
2022/03/14 00:48:32;;;;;;;3.72;2.47;;;;;;;;;;7396188;19;20022;-79
2022/03/14 00:50:58;;;;;;;4.22;2.33;;;;;;;;;;7398109;19;20422;-77
2022/03/14 00:53:23;;;;;;;3.33;1.83;;;;;;;;;;7397950;19;20116;-79
2022/03/14 00:55:48;;;;;;;4.68;2.00;;;;;;;;;;7398510;19;20572;-79
2022/03/14 00:58:14;;;;;;;5.45;2.45;;;;;;;;;;7396982;19;20014;-78
2022/03/14 01:00:39;;;;;;;3.50;1.95;;;;;;;;;;7394924;19;20030;-78
2022/03/14 01:03:05;;;;;;;3.45;2.13;;;;;;;;;;7393552;19;20007;-78
2022/03/14 01:05:30;;;;;;;3.10;1.77;;;;;;;;;;7394621;19;20015;-79
2022/03/14 01:07:56;;;;;;;3.00;1.60;;;;;;;;;;7398374;19;20018;-78
2022/03/14 01:10:23;;;;;;;3.78;2.22;;;;;;;;;;7395758;19;20017;-78
2022/03/14 01:12:48;;;;;;;4.05;1.88;;;;;;;;;;7396655;19;20380;-78
2022/03/14 01:15:14;;;;;;;4.05;2.13;;;;;;;;;;7398264;19;20010;-79
2022/03/14 01:17:40;;;;;;;3.30;1.83;;;;;;;;;;7395927;19;20005;-78
2022/03/14 01:20:08;;;;;;;3.03;1.90;;;;;;;;;;7392397;19;20502;-78
2022/03/14 01:22:34;;;;;;;4.75;1.92;;;;;;;;;;7394882;19;19999;-78
2022/03/14 01:24:59;;;;;;;2.97;1.70;;;;;;;;;;7390537;19;19999;-78
2022/03/14 01:27:24;;;;;;;2.38;1.85;;;;;;;;;;7391184;19;20010;-78
2022/03/14 01:29:49;;;;;;;4.22;3.03;;;;;;;;;;7407348;19;20003;-79
2022/03/14 01:32:15;;;;;;;3.20;1.65;;;;;;;;;;7412164;19;20070;-80
2022/03/14 01:34:40;;;;;;;3.20;1.90;;;;;;;;;;7411693;19;20003;-79
2022/03/14 01:37:05;;;;;;;3.92;1.98;;;;;;;;;;7403019;19;20015;-81
2022/03/14 01:39:31;;;;;;;3.53;2.13;;;;;;;;;;7402040;19;20018;-79
2022/03/14 01:41:56;;;;;;;3.85;1.95;;;;;;;;;;7401706;19;20470;-79
2022/03/14 01:44:22;;;;;;;4.97;2.22;;;;;;;;;;7395081;19;20006;-80
2022/03/14 01:46:48;;;;;;;6.05;2.33;;;;;;;;;;7389787;19;20036;-80
2022/03/14 01:49:13;;;;;;;4.13;2.22;;;;;;;;;;7394733;19;20003;-79
2022/03/14 01:51:40;;;;;;;5.57;1.98;;;;;;;;;;7397413;19;20476;-78
2022/03/14 01:54:07;;;;;;;4.25;2.17;;;;;;;;;;7396556;19;20085;-80
2022/03/14 01:56:34;;;;;;;3.65;1.92;;;;;;;;;;7395673;19;20003;-79
2022/03/14 01:59:00;;;;;;;2.92;1.88;;;;;;;;;;7396017;19;20010;-79
2022/03/14 02:01:25;;;;;;;2.80;1.80;;;;;;;;;;7397517;19;20003;-78
2022/03/14 02:03:50;;;;;;;10.18;2.40;;;;;;;;;;7398976;19;20041;-79
2022/03/14 02:06:17;;;;;;;3.75;2.20;;;;;;;;;;7398214;19;20372;-80
2022/03/14 02:08:43;;;;;;;4.00;2.13;;;;;;;;;;7397962;19;20038;-79
2022/03/14 02:11:08;;;;;;;2.70;1.75;;;;;;;;;;7396552;19;20003;-79
2022/03/14 02:13:33;;;;;;;7.88;2.05;;;;;;;;;;7396594;19;20018;-78
2022/03/14 02:15:59;;;;;;;4.25;2.25;;;;;;;;;;7395686;19;20011;-80
2022/03/14 02:18:24;;;;;;;2.90;1.75;;;;;;;;;;7397312;19;20461;-79
2022/03/14 02:20:49;;;;;;;3.95;1.88;;;;;;;;;;7398573;19;19998;-79
2022/03/14 02:23:15;;;;;;;2.70;1.65;;;;;;;;;;7395247;19;20010;-80
2022/03/14 02:25:51;;;;;;;3.22;1.95;;;;;;;;;;7394679;19;20005;-79
2022/03/14 02:28:19;;;;;;;6.43;1.88;;;;;;;;;;7395848;19;20017;-79
2022/03/14 02:30:44;;;;;;;3.38;1.85;;;;;;;;;;7391552;19;19994;-79
2022/03/14 02:33:10;;;;;;;3.22;1.70;;;;;;;;;;7395875;19;20817;-79
2022/03/14 02:35:39;;;;;;;4.70;1.85;;;;;;;;;;7395158;19;20007;-80
2022/03/14 02:38:09;;;;;;;4.32;1.92;;;;;;;;;;7394396;19;19998;-81
2022/03/14 02:40:36;;;;;;;5.90;2.20;;;;;;;;;;7393346;19;20387;-78
2022/03/14 02:43:02;;;;;;;4.57;2.28;;;;;;;;;;7394035;19;20006;-78
2022/03/14 02:45:27;;;;;;;4.68;1.98;;;;;;;;;;7390186;19;20533;-78
2022/03/14 02:47:52;;;;;;;2.85;1.80;;;;;;;;;;7394171;19;20007;-78
2022/03/14 02:50:18;;;;;;;3.22;1.67;;;;;;;;;;7391371;19;19999;-78
2022/03/14 02:52:43;;;;;;;4.47;2.08;;;;;;;;;;7390105;19;20404;-79
2022/03/14 02:55:08;;;;;;;3.38;1.92;;;;;;;;;;7394764;19;20034;-78
2022/03/14 02:57:34;;;;;;;3.58;1.92;;;;;;;;;;7393656;19;20608;-78
2022/03/14 02:59:59;;;;;;;3.90;2.22;;;;;;;;;;7393537;19;20009;-78
2022/03/14 03:02:25;;;;;;;3.03;1.80;;;;;;;;;;7392175;19;20090;-78
2022/03/14 03:04:51;;;;;;;3.38;2.10;;;;;;;;;;7393616;19;20453;-78
2022/03/14 03:07:19;;;;;;;5.18;2.45;;;;;;;;;;7393733;19;20351;-78
2022/03/14 03:09:45;;;;;;;3.03;2.05;;;;;;;;;;7397426;19;20114;-78
2022/03/14 03:12:14;;;;;;;4.70;2.75;;;;;;;;;;7403094;19;20014;-78
2022/03/14 03:14:40;;;;;;;5.38;2.75;;;;;;;;;;7403866;19;20131;-78
2022/03/14 03:17:06;;;;;;;4.30;2.28;;;;;;;;;;7400792;19;20098;-78
2022/03/14 03:19:32;;;;;;;7.88;2.53;;;;;;;;;;7398629;19;20323;-78
2022/03/14 03:21:57;;;;;;;5.38;2.85;;;;;;;;;;7402135;19;20077;-79
2022/03/14 03:24:22;;;;;;;5.18;2.45;;;;;;;;;;7401978;19;20034;-78
2022/03/14 03:26:48;;;;;;;5.40;2.72;;;;;;;;;;7398308;19;20219;-78
2022/03/14 03:29:13;;;;;;;6.00;2.92;;;;;;;;;;7398924;19;19995;-78
2022/03/14 03:31:38;;;;;;;5.78;2.60;;;;;;;;;;7401518;19;20007;-78
2022/03/14 03:34:05;;;;;;;6.82;3.40;;;;;;;;;;7401271;19;20010;-78
2022/03/14 03:36:30;;;;;;;10.05;4.05;;;;;;;;;;7397802;19;20103;-79
2022/03/14 03:38:58;;;;;;;5.85;2.90;;;;;;;;;;7399458;19;20006;-79
2022/03/14 03:41:23;;;;;;;7.90;3.47;;;;;;;;;;7398754;19;20006;-78
2022/03/14 03:43:49;;;;;;;10.57;4.10;;;;;;;;;;7400554;19;20002;-78
2022/03/14 03:46:14;;;;;;;7.90;3.65;;;;;;;;;;7398333;19;20013;-78
2022/03/14 03:48:39;;;;;;;7.80;3.25;;;;;;;;;;7398731;19;20430;-79
2022/03/14 03:51:05;;;;;;;5.28;3.20;;;;;;;;;;7398503;19;20007;-78
2022/03/14 03:53:30;;;;;;;6.18;3.45;;;;;;;;;;7396371;19;20026;-79
2022/03/14 03:55:55;;;;;;;6.57;3.25;;;;;;;;;;7401774;19;20050;-78
2022/03/14 03:58:20;;;;;;;9.05;4.10;;;;;;;;;;7399451;19;20003;-79
2022/03/14 04:00:46;;;;;;;6.95;3.40;;;;;;;;;;7397791;19;20466;-78
2022/03/14 04:03:11;;;;;;;6.07;3.42;;;;;;;;;;7398493;19;20002;-79
2022/03/14 04:05:39;;;;;;;6.65;3.17;;;;;;;;;;7396969;19;20022;-79
2022/03/14 04:08:08;;;;;;;9.57;4.20;;;;;;;;;;7397012;19;20041;-78
2022/03/14 04:10:33;;;;;;;10.07;4.70;;;;;;;;;;7397863;19;20086;-78
2022/03/14 04:12:59;;;;;;;8.50;3.92;;;;;;;;;;7396553;19;19998;-78
2022/03/14 04:15:27;;;;;;;10.80;5.05;;;;;;;;;;7396774;19;20018;-79
2022/03/14 04:17:56;;;;;;;9.05;4.53;;;;;;;;;;7395495;19;20006;-78
2022/03/14 04:20:23;;;;;;;8.32;4.47;;;;;;;;;;7396344;19;20014;-78
2022/03/14 04:22:49;;;;;;;19.60;5.63;;;;;;;;;;7398310;19;20524;-79
2022/03/14 04:25:15;;;;;;;12.02;5.82;;;;;;;;;;7396414;19;20027;-77
2022/03/14 04:27:40;;;;;;;11.35;5.65;;;;;;;;;;7393364;19;20027;-78
2022/03/14 04:30:07;;;;;;;12.05;6.22;;;;;;;;;;7392731;19;20350;-79
2022/03/14 04:32:32;;;;;;;12.10;6.38;;;;;;;;;;7397735;19;20010;-79
2022/03/14 04:34:57;;;;;;;19.55;7.97;;;;;;;;;;7395154;19;20021;-79
2022/03/14 04:37:23;;;;;;;13.70;6.38;;;;;;;;;;7394244;19;20006;-78
2022/03/14 04:39:48;;;;;;;15.43;7.28;;;;;;;;;;7392300;19;20474;-78
2022/03/14 04:42:16;;;;;;;13.43;7.32;;;;;;;;;;7393612;19;20003;-78
2022/03/14 04:44:41;;;;;;;12.18;6.85;;;;;;;;;;7392111;19;20010;-79
2022/03/14 04:47:06;;;;;;;14.38;7.63;;;;;;;;;;7394272;19;20470;-77
2022/03/14 04:49:32;;;;;;;15.25;7.03;;;;;;;;;;7398149;19;20001;-79
2022/03/14 04:51:57;;;;;;;12.80;7.25;;;;;;;;;;7391833;19;20011;-79
2022/03/14 04:54:22;;;;;;;12.80;7.28;;;;;;;;;;7392919;19;20002;-77
2022/03/14 04:56:48;;;;;;;14.20;7.43;;;;;;;;;;7389480;19;20840;-77
2022/03/14 04:59:14;;;;;;;16.33;7.35;;;;;;;;;;7391482;19;20025;-78
2022/03/14 05:01:40;;;;;;;13.65;7.38;;;;;;;;;;7391289;19;20035;-79
2022/03/14 05:04:06;;;;;;;16.65;7.68;;;;;;;;;;7389063;19;20017;-78
2022/03/14 05:06:34;;;;;;;13.07;7.05;;;;;;;;;;7386235;19;20481;-78
2022/03/14 05:12:45;;;;;;;10.52;5.80;;;;;;;;;;7401296;19;20015;-77
2022/03/14 05:15:30;;;;;;;12.10;6.77;;;;;;;;;;7399421;19;20027;-77
2022/03/14 05:18:11;;;;;;;12.55;6.93;;;;;;;;;;7398033;19;20003;-78
2022/03/14 05:20:40;;;;;;;13.55;6.88;;;;;;;;;;7400993;19;20648;-78
2022/03/14 05:23:06;;;;;;;15.80;7.63;;;;;;;;;;7400194;19;20041;-78
2022/03/14 05:25:32;;;;;;;15.75;7.65;;;;;;;;;;7401328;19;20014;-78
2022/03/14 05:27:57;;;;;;;15.95;6.93;;;;;;;;;;7392221;19;20010;-78
2022/03/14 05:30:24;;;;;;;13.02;7.03;;;;;;;;;;7390333;19;20015;-78
2022/03/14 05:32:50;;;;;;;15.20;6.97;;;;;;;;;;7391060;19;20010;-78
2022/03/14 05:35:16;;;;;;;12.93;7.47;;;;;;;;;;7392640;19;20021;-77
2022/03/14 05:37:46;;;;;;;13.40;7.30;;;;;;;;;;7390398;19;20002;-77
2022/03/14 05:40:13;;;;;;;17.30;7.50;;;;;;;;;;7391503;19;20039;-77
2022/03/14 05:42:38;;;;;;;12.57;6.53;;;;;;;;;;7393318;19;20013;-75
2022/03/14 05:45:04;;;;;;;11.10;6.55;;;;;;;;;;7392078;19;20089;-77
2022/03/14 05:47:29;;;;;;;13.55;6.78;;;;;;;;;;7385732;19;20031;-77
2022/03/14 05:49:55;;;;;;;13.25;7.00;;;;;;;;;;7391045;19;20023;-76
2022/03/14 05:52:21;;;;;;;12.77;6.50;;;;;;;;;;7392279;19;20467;-77
2022/03/14 05:54:46;;;;;;;13.55;6.85;;;;;;;;;;7391300;19;20659;-78
2022/03/14 05:57:12;;;;;;;14.38;7.65;;;;;;;;;;7389540;19;20009;-77
2022/03/14 05:59:37;;;;;;;17.42;7.38;;;;;;;;;;7390879;19;20038;-77
2022/03/14 06:02:02;;;;;;;13.35;7.18;;;;;;;;;;7391886;19;20103;-77
2022/03/14 06:04:28;;;;;;;14.70;7.05;;;;;;;;;;7390421;19;20829;-78
2022/03/14 06:06:53;;;;;;;13.40;7.07;;;;;;;;;;7389735;19;20472;-77
2022/03/14 06:09:19;;;;;;;13.38;7.13;;;;;;;;;;7402287;19;20018;-78
2022/03/14 06:11:45;;;;;;;13.55;6.75;;;;;;;;;;7394255;19;20382;-78
2022/03/14 06:14:11;;;;;;;16.70;7.53;;;;;;;;;;7391423;19;20078;-77
2022/03/14 06:16:36;;;;;;;13.85;6.88;;;;;;;;;;7391157;19;20391;-78
2022/03/14 06:19:02;;;;;;;13.95;6.50;;;;;;;;;;7390133;19;20010;-78
2022/03/14 06:21:27;;;;;;;13.90;7.43;;;;;;;;;;7387506;19;20744;-77
2022/03/14 06:23:52;;;;;;;13.30;6.53;;;;;;;;;;7391476;19;20063;-76
2022/03/14 06:26:18;;;;;;;12.65;6.68;;;;;;;;;;7390303;19;20044;-77
2022/03/14 06:28:44;;;;;;;16.23;6.95;;;;;;;;;;7392726;19;20013;-78
2022/03/14 06:31:11;;;;;;;17.40;7.32;;;;;;;;;;7399508;19;19995;-80
2022/03/14 06:33:38;;;;;;;13.18;6.47;;;;;;;;;;7404456;19;20006;-78
2022/03/14 06:36:06;;;;;;;11.23;6.22;;;;;;;;;;7404183;19;20014;-76
2022/03/14 06:38:36;;;;;;;14.40;7.45;;;;;;;;;;7408978;19;20003;-76
2022/03/14 06:41:05;;;;;;;14.40;7.32;;;;;;;;;;7405845;19;20028;-75
2022/03/14 06:43:32;;;;;;;18.10;7.22;;;;;;;;;;7407093;19;20446;-77
2022/03/14 06:45:59;;;;;;;11.70;6.70;;;;;;;;;;7406094;19;20007;-76
2022/03/14 06:48:26;;;;;;;13.15;6.95;;;;;;;;;;7404294;19;20006;-76
2022/03/14 06:50:51;;;;;;;14.93;6.97;;;;;;;;;;7400024;19;20033;-76
2022/03/14 06:53:18;;;;;;;11.68;6.00;;;;;;;;;;7405710;19;20046;-75
2022/03/14 06:55:45;;;;;;;10.63;5.90;;;;;;;;;;7405751;19;20010;-75
2022/03/14 06:58:34;;;;;;;12.80;6.70;;;;;;;;;;7402739;19;20003;-76
2022/03/14 07:01:01;;;;;;;10.93;5.68;;;;;;;;;;7410474;19;20036;-76
2022/03/14 07:03:28;;;;;;;13.63;6.35;;;;;;;;;;7397412;19;20055;-76
2022/03/14 07:06:03;;;;;;;10.20;5.90;;;;;;;;;;7393667;19;20011;-76
2022/03/14 07:08:32;;;;;;;10.90;5.60;;;;;;;;;;7396925;19;20026;-76
2022/03/14 07:10:58;;;;;;;9.10;5.18;;;;;;;;;;7397864;19;20011;-76
2022/03/14 07:13:24;;;;;;;11.18;4.82;;;;;;;;;;7401021;19;20816;-75
2022/03/14 07:15:51;;;;;;;7.47;4.70;;;;;;;;;;7400174;19;20011;-76
2022/03/14 07:18:16;;;;;;;8.30;4.57;;;;;;;;;;7396087;19;20049;-77
2022/03/14 07:20:42;;;;;;;8.65;4.45;;;;;;;;;;7388560;19;20007;-77
2022/03/14 07:23:07;;;;;;;7.45;4.47;;;;;;;;;;7387244;19;20009;-76
2022/03/14 07:25:37;;;;;;;7.90;4.28;;;;;;;;;;7389660;19;20026;-78
2022/03/14 07:28:05;;;;;;;6.82;3.92;;;;;;;;;;7384503;19;20010;-77
2022/03/14 07:30:31;;;;;;;8.60;4.38;;;;;;;;;;7387765;19;20429;-76
2022/03/14 07:32:57;;;;;;;7.03;3.25;;;;;;;;;;7388773;19;20092;-77
2022/03/14 07:35:24;;;;;;;4.13;3.03;;;;;;;;;;7388895;19;20013;-80
2022/03/14 07:37:49;;;;;;;4.90;2.70;;;;;;;;;;7381466;19;20022;-76
2022/03/14 07:40:15;;;;;;;4.40;2.70;;;;;;;;;;7386525;19;20010;-76
2022/03/14 07:42:46;;;;;;;4.40;2.58;;;;;;;;;;7385699;19;20433;-75
2022/03/14 07:45:16;;;;;;;4.53;2.85;;;;;;;;;;7390002;19;20021;-77
2022/03/14 07:47:44;;;;;;;3.75;2.22;;;;;;;;;;7391863;19;20050;-78
2022/03/14 07:50:14;;;;;;;5.85;2.17;;;;;;;;;;7393518;19;20010;-75
2022/03/14 07:52:40;;;;;;;5.72;2.25;;;;;;;;;;7395254;19;20026;-78
2022/03/14 07:55:07;;;;;;;2.60;1.90;;;;;;;;;;7392540;19;21462;-76
2022/03/14 07:57:33;;;;;;;2.75;1.83;;;;;;;;;;7392904;19;20040;-76
2022/03/14 07:59:59;;;;;;;3.03;1.80;;;;;;;;;;7397416;19;20346;-76
2022/03/14 08:02:24;;;;;;;1.58;1.33;;;;;;;;;;7396764;19;20014;-78
2022/03/14 08:04:50;;;;;;;2.55;1.10;;;;;;;;;;7397593;19;20022;-76
2022/03/14 08:07:17;;;;;;;1.63;1.05;;;;;;;;;;7394113;19;20015;-76
2022/03/14 08:09:42;;;;;;;2.47;1.08;;;;;;;;;;7392937;19;20021;-76
2022/03/14 08:12:10;;;;;;;1.20;0.82;;;;;;;;;;7396454;19;20010;-78
2022/03/14 08:14:35;;;;;;;1.58;0.73;;;;;;;;;;7397135;19;20011;-76
2022/03/14 08:17:01;;;;;;;1.15;0.90;;;;;;;;;;7391722;19;20476;-77
2022/03/14 08:19:26;;;;;;;6.55;2.47;;;;;;;;;;7397234;19;20011;-77
2022/03/14 08:21:52;;;;;;;2.53;1.35;;;;;;;;;;7396475;19;20078;-76
2022/03/14 08:24:17;;;;;;;1.92;1.05;;;;;;;;;;7393044;19;20010;-75
2022/03/14 08:26:43;;;;;;;1.25;1.00;;;;;;;;;;7388762;19;20012;-78
2022/03/14 08:29:09;;;;;;;1.48;0.98;;;;;;;;;;7391467;19;20021;-76
2022/03/14 08:31:35;;;;;;;1.10;0.75;;;;;;;;;;7392423;19;20003;-75
2022/03/14 08:34:00;;;;;;;0.60;0.60;;;;;;;;;;7392537;19;20032;-75
2022/03/14 08:36:26;;;;;;;0.95;0.60;;;;;;;;;;7390031;19;20034;-77
2022/03/14 08:38:53;;;;;;;0.88;0.55;;;;;;;;;;7389712;19;20022;-75
2022/03/14 08:41:19;;;;;;;1.02;0.70;;;;;;;;;;7393862;19;20470;-75
2022/03/14 08:43:45;;;;;;;2.78;1.20;;;;;;;;;;7393711;19;20023;-75
2022/03/14 08:46:17;;;;;;;0.82;0.73;;;;;;;;;;7392997;19;20018;-76
2022/03/14 08:48:46;;;;;;;3.05;0.85;;;;;;;;;;7402532;19;20014;-77
2022/03/14 08:51:11;;;;;;;3.17;0.93;;;;;;;;;;7405622;19;20514;-75
2022/03/14 08:53:36;;;;;;;0.88;0.75;;;;;;;;;;7404773;19;20007;-75
2022/03/14 08:56:03;;;;;;;1.83;1.17;;;;;;;;;;7403663;19;20014;-77
2022/03/14 08:58:31;;;;;;;2.58;1.00;;;;;;;;;;7400968;19;20010;-75
2022/03/14 09:01:00;;;;;;;1.83;1.17;;;;;;;;;;7404919;19;20011;-76
2022/03/14 09:03:26;;;;;;;3.22;0.98;;;;;;;;;;7395499;19;20030;-75
2022/03/14 09:05:56;;;;;;;5.90;2.63;;;;;;;;;;7391528;19;20050;-76
2022/03/14 09:08:23;;;;;;;3.92;2.13;;;;;;;;;;7392413;19;20038;-76
2022/03/14 09:10:49;;;;;;;5.18;1.90;;;;;;;;;;7389665;19;20025;-75
2022/03/14 09:13:15;;;;;;;1.80;0.90;;;;;;;;;;7388725;19;20323;-75
2022/03/14 09:15:40;;;;;;;1.98;1.08;;;;;;;;;;7391462;19;20643;-76
2022/03/14 09:18:06;;;;;;;2.42;0.80;;;;;;;;;;7389133;19;20105;-75
2022/03/14 09:20:32;;;;;;;0.88;0.60;;;;;;;;;;7390741;19;20024;-76
2022/03/14 09:22:57;;;;;;;1.15;0.70;;;;;;;;;;7392308;19;20453;-76
2022/03/14 09:25:24;;;;;;;1.48;0.40;;;;;;;;;;7392344;19;20006;-76
2022/03/14 09:27:50;;;;;;;0.60;0.47;;;;;;;;;;7387049;19;20104;-78
2022/03/14 09:30:17;;;;;;;0.50;0.35;;;;;;;;;;7389788;19;20104;-76
2022/03/14 09:32:43;;;;;;;1.15;0.70;;;;;;;;;;7391983;19;20011;-75
2022/03/14 09:35:09;;;;;;;0.60;0.32;;;;;;;;;;7390890;19;20015;-76
2022/03/14 09:37:40;;;;;;;1.42;1.10;;;;;;;;;;7389442;19;20025;-76
2022/03/14 09:40:11;;;;;;;0.70;0.70;;;;;;;;;;7389393;19;20035;-76
2022/03/14 09:42:39;;;;;;;0.57;0.40;;;;;;;;;;7389750;19;20153;-76
2022/03/14 09:45:06;;;;;;;0.57;0.52;;;;;;;;;;7389853;19;20006;-75
2022/03/14 09:47:40;;;;;;;1.42;0.75;;;;;;;;;;7388451;19;20405;-75
2022/03/14 09:50:28;;;;;;;0.60;0.40;;;;;;;;;;7389524;19;20006;-76
2022/03/14 09:52:55;;;;;;;1.10;0.50;;;;;;;;;;7388218;19;20003;-76
2022/03/14 09:55:20;;;;;;;0.90;0.60;;;;;;;;;;7390349;19;20007;-76
2022/03/14 09:57:46;;;;;;;0.20;0.20;;;;;;;;;;7388612;19;20006;-76
2022/03/14 10:00:15;;;;;;;0.70;0.47;;;;;;;;;;7387858;19;20327;-76
2022/03/14 10:02:42;;;;;;;1.48;1.00;;;;;;;;;;7390238;19;20407;-76
2022/03/14 10:05:09;;;;;;;3.22;0.22;;;;;;;;;;7390680;19;20014;-76
2022/03/14 10:07:35;;;;;;;0.38;0.20;;;;;;;;;;7387423;19;20007;-75
2022/03/14 10:10:01;;;;;;;0.47;0.28;;;;;;;;;;7389438;19;20030;-75
2022/03/14 10:12:26;;;;;;;1.20;0.75;;;;;;;;;;7392353;19;20014;-77
2022/03/14 10:14:52;;;;;;;0.50;0.45;;;;;;;;;;7391451;19;20006;-74
2022/03/14 10:17:17;;;;;;;1.05;0.63;;;;;;;;;;7390596;19;20034;-75
2022/03/14 10:19:53;;;;;;;2.67;0.98;;;;;;;;;;7392050;19;20010;-77
2022/03/14 10:22:20;;;;;;;1.42;0.77;;;;;;;;;;7395358;19;20010;-75
2022/03/14 10:24:47;;;;;;;1.10;0.88;;;;;;;;;;7395724;19;20015;-76
2022/03/14 10:27:17;;;;;;;0.95;0.50;;;;;;;;;;7393369;19;20010;-76
2022/03/14 10:29:43;;;;;;;0.75;0.60;;;;;;;;;;7398678;19;20031;-77
2022/03/14 10:32:31;;;;;;;0.70;0.40;;;;;;;;;;7397611;19;20002;-76
2022/03/14 10:35:04;;;;;;;0.52;0.25;;;;;;;;;;7394636;19;20013;-76
2022/03/14 10:37:34;;;;;;;1.00;0.40;;;;;;;;;;7390720;19;20083;-77
2022/03/14 10:40:08;;;;;;;0.13;0.13;;;;;;;;;;7393269;19;20006;-77
2022/03/14 10:42:38;;;;;;;0.47;0.30;;;;;;;;;;7391347;19;20027;-77
2022/03/14 10:45:15;;;;;;;1.00;0.47;;;;;;;;;;7391220;19;20006;-77
2022/03/14 10:47:51;;;;;;;0.40;0.28;;;;;;;;;;7389866;19;20031;-76
2022/03/14 10:50:37;;;;;;;0.80;0.30;;;;;;;;;;7390522;19;20074;-79
2022/03/14 10:53:11;;;;;;;0.40;0.30;;;;;;;;;;7391224;19;20007;-77
2022/03/14 10:55:48;;;;;;;0.47;0.20;;;;;;;;;;7387450;19;20119;-77
2022/03/14 10:58:18;;;;;;;0.50;0.20;;;;;;;;;;7386509;19;20094;-80
2022/03/14 11:00:52;;;;;;;0.60;0.20;;;;;;;;;;7391264;19;20509;-77
2022/03/14 11:03:24;;;;;;;0.10;0.10;;;;;;;;;;7387358;19;20345;-76
2022/03/14 11:05:51;;;;;;;0.00;0.00;;;;;;;;;;7388164;19;20079;-75
2022/03/14 11:08:42;;;;;;;0.43;0.20;;;;;;;;;;7387943;19;20011;-77
2022/03/14 11:11:14;;;;;;;1.27;0.20;;;;;;;;;;7390104;19;20098;-76
2022/03/14 11:13:48;;;;;;;0.20;0.10;;;;;;;;;;7389867;19;20820;-76
2022/03/14 11:16:25;;;;;;;1.95;0.20;;;;;;;;;;7388083;19;20077;-76
2022/03/14 11:18:52;;;;;;;0.10;0.10;;;;;;;;;;7385200;19;20086;-77
2022/03/14 11:21:19;;;;;;;0.30;0.22;;;;;;;;;;7389328;19;20001;-77
2022/03/14 11:23:46;;;;;;;0.10;0.10;;;;;;;;;;7384426;19;20014;-76
2022/03/14 11:26:13;;;;;;;0.10;0.10;;;;;;;;;;7384438;19;20010;-75
2022/03/14 11:28:41;;;;;;;0.20;0.20;;;;;;;;;;7395302;19;20499;-76
2022/03/14 11:31:07;;;;;;;0.10;0.10;;;;;;;;;;7397454;19;19987;-76
2022/03/14 11:33:35;;;;;;;0.20;0.20;;;;;;;;;;7394540;19;20030;-77
2022/03/14 11:36:01;;;;;;;0.43;0.30;;;;;;;;;;7392884;19;20010;-77
2022/03/14 11:38:28;;;;;;;0.38;0.38;;;;;;;;;;7391614;19;20007;-77
2022/03/14 11:40:54;;;;;;;0.20;0.20;;;;;;;;;;7393199;19;20539;-77
2022/03/14 11:43:19;;;;;;;0.43;0.20;;;;;;;;;;7394831;19;20537;-78
2022/03/14 11:45:46;;;;;;;0.60;0.20;;;;;;;;;;7394320;19;20070;-77
2022/03/14 11:48:13;;;;;;;0.25;0.25;;;;;;;;;;7392845;19;20014;-78
2022/03/14 11:50:48;;;;;;;0.10;0.10;;;;;;;;;;7392805;19;20002;-76
2022/03/14 11:53:26;;;;;;;0.17;0.17;;;;;;;;;;7393206;19;20029;-77
2022/03/14 11:55:54;;;;;;;2.72;0.28;;;;;;;;;;7393108;19;20014;-77
2022/03/14 11:58:34;;;;;;;0.10;0.10;;;;;;;;;;7391203;19;20010;-77
2022/03/14 12:01:13;;;;;;;0.28;0.20;;;;;;;;;;7394055;19;20452;-78
2022/03/14 12:03:42;;;;;;;0.25;0.20;;;;;;;;;;7393397;19;20002;-77
2022/03/14 12:06:08;;;;;;;0.10;0.10;;;;;;;;;;7391690;19;19997;-78
2022/03/14 12:08:36;;;;;;;0.40;0.17;;;;;;;;;;7393899;19;20014;-77
2022/03/14 12:11:26;;;;;;;5.68;0.55;;;;;;;;;;7392060;19;20275;-75
2022/03/14 12:13:52;;;;;;;0.30;0.30;;;;;;;;;;7393761;19;20002;-75
2022/03/14 12:16:49;;;;;;;0.35;0.22;;;;;;;;;;7392988;19;20129;-75
2022/03/14 12:19:36;;;;;;;0.20;0.20;;;;;;;;;;7387512;19;20343;-74
2022/03/14 12:22:03;;;;;;;0.40;0.40;;;;;;;;;;7390617;19;20349;-75
2022/03/14 12:24:35;;;;;;;0.32;0.30;;;;;;;;;;7393486;19;20075;-75
2022/03/14 12:27:00;;;;;;;0.20;0.20;;;;;;;;;;7391035;19;20049;-75
2022/03/14 12:29:36;;;;;;;0.65;0.30;;;;;;;;;;7390259;19;20014;-75
2022/03/14 12:32:38;;;;;;;0.32;0.30;;;;;;;;;;7392410;19;20573;-75
2022/03/14 12:35:27;;;;;;;0.32;0.22;;;;;;;;;;7391237;19;20009;-75
2022/03/14 12:37:54;;;;;;;0.93;0.43;;;;;;;;;;7388132;19;20098;-77
2022/03/14 12:40:20;;;;;;;1.65;0.47;;;;;;;;;;7390436;19;20018;-77
2022/03/14 12:43:10;;;;;;;0.50;0.50;;;;;;;;;;7393921;19;20026;-77
2022/03/14 12:45:44;;;;;;;1.70;1.25;;;;;;;;;;7394110;19;20002;-77
2022/03/14 12:48:21;;;;;;;0.40;0.40;;;;;;;;;;7393341;19;20470;-75
2022/03/14 12:50:50;;;;;;;2.15;1.65;;;;;;;;;;7400506;19;20006;-76
2022/03/14 12:53:18;;;;;;;1.63;0.90;;;;;;;;;;7398378;19;20002;-76
2022/03/14 12:55:51;;;;;;;0.60;0.50;;;;;;;;;;7394774;19;20014;-74
2022/03/14 12:58:19;;;;;;;2.63;0.82;;;;;;;;;;7397103;19;20018;-75
2022/03/14 13:00:44;;;;;;;0.40;0.40;;;;;;;;;;7398307;19;20023;-75
2022/03/14 13:03:10;;;;;;;1.67;1.13;;;;;;;;;;7392970;19;20006;-75
2022/03/14 13:05:41;;;;;;;0.93;0.82;;;;;;;;;;7389732;19;20002;-76
2022/03/14 13:08:07;;;;;;;1.00;0.63;;;;;;;;;;7392823;19;20350;-75
2022/03/14 13:10:47;;;;;;;0.77;0.50;;;;;;;;;;7389603;19;20038;-76
2022/03/14 13:13:21;;;;;;;0.70;0.70;;;;;;;;;;7390974;19;20387;-75
2022/03/14 13:16:19;;;;;;;1.75;0.63;;;;;;;;;;7389508;19;20016;-75
2022/03/14 13:18:49;;;;;;;0.30;0.30;;;;;;;;;;7386878;19;20041;-75
2022/03/14 13:21:20;;;;;;;0.30;0.30;;;;;;;;;;7393679;19;20010;-75
2022/03/14 13:23:51;;;;;;;1.05;0.50;;;;;;;;;;7389459;19;20022;-76
2022/03/14 13:26:18;;;;;;;0.73;0.73;;;;;;;;;;7389066;19;20021;-75
2022/03/14 13:28:43;;;;;;;0.95;0.50;;;;;;;;;;7392385;19;20014;-75
2022/03/14 13:31:13;;;;;;;2.10;0.52;;;;;;;;;;7394250;19;20731;-75
2022/03/14 13:33:41;;;;;;;0.35;0.35;;;;;;;;;;7396695;19;20588;-74
2022/03/14 13:36:12;;;;;;;0.57;0.57;;;;;;;;;;7390088;19;20042;-75
2022/03/14 13:38:44;;;;;;;0.50;0.43;;;;;;;;;;7391113;19;20025;-75
2022/03/14 13:41:12;;;;;;;1.30;0.95;;;;;;;;;;7386819;19;20009;-76
2022/03/14 13:43:39;;;;;;;4.10;2.35;;;;;;;;;;7391321;19;20006;-75
2022/03/14 13:46:30;;;;;;;0.50;0.50;;;;;;;;;;7390737;19;20022;-75
2022/03/14 13:48:58;;;;;;;2.17;1.63;;;;;;;;;;7392110;19;19999;-76
2022/03/14 13:51:32;;;;;;;1.88;1.10;;;;;;;;;;7392776;19;20070;-75
2022/03/14 13:54:08;;;;;;;0.73;0.63;;;;;;;;;;7392718;19;20018;-75
2022/03/14 13:56:36;;;;;;;0.75;0.60;;;;;;;;;;7391851;19;20010;-77
2022/03/14 13:59:03;;;;;;;0.75;0.40;;;;;;;;;;7390717;19;20009;-77
2022/03/14 14:01:47;;;;;;;1.25;0.73;;;;;;;;;;7393441;19;20017;-77
2022/03/14 14:04:24;;;;;;;0.40;0.40;;;;;;;;;;7391340;19;20014;-77
2022/03/14 14:06:51;;;;;;;0.75;0.57;;;;;;;;;;7391200;19;20011;-78
2022/03/14 14:09:25;;;;;;;0.80;0.40;;;;;;;;;;7391320;19;20077;-77
2022/03/14 14:12:02;;;;;;;0.57;0.57;;;;;;;;;;7390099;19;20018;-78
2022/03/14 14:14:29;;;;;;;1.38;0.50;;;;;;;;;;7392099;19;20027;-77
2022/03/14 14:17:11;;;;;;;3.10;0.40;;;;;;;;;;7390412;19;20027;-77
2022/03/14 14:19:58;;;;;;;0.50;0.40;;;;;;;;;;7388305;19;20010;-76
2022/03/14 14:22:44;;;;;;;2.93;0.57;;;;;;;;;;7391767;19;20006;-77
2022/03/14 14:25:12;;;;;;;0.40;0.40;;;;;;;;;;7391141;19;20260;-77
2022/03/14 14:27:53;;;;;;;0.47;0.40;;;;;;;;;;7390590;19;20082;-77
2022/03/14 14:30:43;;;;;;;0.57;0.45;;;;;;;;;;7387446;19;20007;-76
2022/03/14 14:33:15;;;;;;;0.65;0.40;;;;;;;;;;7390571;19;20007;-76
2022/03/14 14:35:53;;;;;;;0.63;0.40;;;;;;;;;;7389582;19;20050;-76
2022/03/14 14:38:21;;;;;;;0.57;0.45;;;;;;;;;;7385953;19;20002;-76
2022/03/14 14:40:52;;;;;;;0.40;0.40;;;;;;;;;;7391236;19;20158;-77
2022/03/14 14:43:19;;;;;;;0.77;0.50;;;;;;;;;;7391980;19;20015;-78
2022/03/14 14:45:45;;;;;;;2.70;0.30;;;;;;;;;;7391667;19;20013;-76
2022/03/14 14:48:12;;;;;;;0.50;0.50;;;;;;;;;;7390338;19;20040;-76
2022/03/14 14:50:39;;;;;;;0.30;0.30;;;;;;;;;;7392680;19;20010;-78
2022/03/14 14:53:10;;;;;;;0.47;0.38;;;;;;;;;;7387403;19;20003;-78